LNH weather

Lake Nash Airport
Alpurrurulam, Northern Territory, Australia

Public forecast

Using degrees Celsius for public forecast. Weather courtesy of forecast.io.

METAR (pilot weather report)

Closest report is Mount Isa Airport, 90.2 nm (167.1 km) ENE. Retrieved 2019/04/22 19:30 UTC (7 minutes ago):

YBMA 221930Z AUTO 18009KT 9999 // NCD 21/12 Q1016 RF00.0/000.0

TAF (pilot weather forecast)

Closest forecast is Mount Isa Airport, 90.2 nm (167.1 km) ENE. Retrieved 2019/04/22 18:03 UTC (2 hours ago):

TAF TAF YBMA 221638Z 2218/2306 15008KT CAVOK